To NAV CANADA Home Page Login to a new session Search on AWWS site Disclaimer Vers la page française équivalente Tips FAQ What's new on the site To the Forecasts and Observations / NOTAM section To "File a Flight Plan" website Publications and other links Update of the User's profile FIC Telephone Numbers My Weather Data Folder Route Weather Data Regional Weather Data Local Weather Data To the Forecasts and Observations / NOTAM section
Request Generated 07/21/2018 at 19:21:15 UTC . Weather information available at that time is displayed.

METAR/TAF

If you find any discrepancies between the coded METAR/TAF and the plain language METAR/TAF please use the coded METAR/TAF. LWIS bulletins are not decoded in plain language.

CALGARY/SPRINGBANK/AB    (show WxCam)

METAR CYBW 211900Z AUTO 14013G20KT 110V180 9SM SCT110 22/05 A2990 RMK SLP122 DE ITY ALT 5600FT=
METAR
LOCATION
CYBW - CALGARY/SPRINGBANK/AB
DATE - TIME
21 JULY 2018 - 1900 UTC
WIND
140 TRUE @ 13  KNOTS
VARIATION
110 <-> 180  DEG
GUSTS
20 KNOTS
VISIBILITY
9 STAT.  MILES
RUNWAY VISUAL RANGE
WEATHER
CLOUDINESS
SCATTERED CLOUDS (3/8 - 4/8) 11000  FT
TEMP / DEWPOINT
22 C / 5 C
ALTIMETER
29.90 IN HG
RECENT WEATHER
WIND SHEAR

METAR CYBW 211800Z AUTO 14010G15KT 9SM FEW085 20/07 A2992 RMK SLP131 DENSITY AL 5300FT=
METAR
LOCATION
CYBW - CALGARY/SPRINGBANK/AB
DATE - TIME
21 JULY 2018 - 1800 UTC
WIND
140 TRUE @ 10  KNOTS
GUSTS
15 KNOTS
VISIBILITY
9 STAT.  MILES
RUNWAY VISUAL RANGE
WEATHER
CLOUDINESS
FEW CLOUDS (1/8 - 2/8) 8500  FT
TEMP / DEWPOINT
20 C / 7 C
ALTIMETER
29.92 IN HG
RECENT WEATHER
WIND SHEAR

METAR CYBW 211700Z AUTO 13008G16KT 9SM CLR 17/06 A2993 RMK SLP138 DENSITY ALT 5 0FT=
METAR
LOCATION
CYBW - CALGARY/SPRINGBANK/AB
DATE - TIME
21 JULY 2018 - 1700 UTC
WIND
130 TRUE @ 8  KNOTS
GUSTS
16 KNOTS
VISIBILITY
9 STAT.  MILES
RUNWAY VISUAL RANGE
WEATHER
CLOUDINESS
CLEAR SKY
TEMP / DEWPOINT
17 C / 6 C
ALTIMETER
29.93 IN HG
RECENT WEATHER
WIND SHEAR

TAF CYBW 211743Z 2118/2204 14012KT P6SM FEW050 SCT100 BECMG 2118/2120 29008KT FM212200 34015G25KT P6SM SCT090 TEMPO 2122/2204 P6SM -SHRA BKN080 RMK FCST BASED ON AUTO OBS. NXT FCST BY 220000Z=
TAF
LOCATION

CYBW - CALGARY/SPRINGBANK/AB
VALIDITY [UTC]
21 JUL - 1743 to
22 JUL - 0400
 
TIMES
[UTC]
WIND
[DEGREES TRUE]
VISIBILITY
[STAT. MILES]
WEATHER
CLOUDINESS
[FEET AGL]
 
21 JUL - 1800 to
21 JUL - 2200
140 @ 12 KNOTS
6+
NIL
5000 FEW
10000 SCATTERED
BECOMING
21 JUL - 1800 to
21 JUL - 2000
290 @ 8 KNOTS
 
 
 
 
21 JUL - 2200 to
22 JUL - 0400
340 @ 15 KNOTS
GUSTS 25 KNOTS
6+
NIL
9000 SCATTERED
TEMPORARY CHANGES
21 JUL - 2200 to
22 JUL - 0400
 
6+
LIGHT RAIN SHOWER
8000 BROKEN
REMARKS
THE FORECAST IS BASED ON AUTOMATIC OBSERVATIONS - THE NEXT FORECAST WILL BE ISSUED BY 0000 UTC ON DAY 22


Your time UTC time
Weather data provided by Environment Canada and NAV CANADA